Time;durP1;ratioP1;P1;durP2;ratioP2;P2;SDS_P1;SDS_P2;PMS_P1;PMS_P2;Temp;Humidity;BMP_temperature;BMP_pressure;BME280_temperature;BME280_humidity;BME280_pressure;Samples;Min_cycle;Max_cycle;Signal;HPM_P1;HPM_P2
2024/02/09 00:01:14;;;;;;;0.50;0.43;;;9.40;99.90;;;;;;4958596;28;20450;-78
2024/02/09 00:03:41;;;;;;;1.60;0.63;;;9.40;99.90;;;;;;4958720;29;20450;-78
2024/02/09 00:06:08;;;;;;;0.40;0.40;;;9.50;99.90;;;;;;4958930;29;20970;-78
2024/02/09 00:08:40;;;;;;;0.63;0.53;;;9.50;99.90;;;;;;4959060;28;20453;-79
2024/02/09 00:11:07;;;;;;;0.40;0.40;;;9.50;99.90;;;;;;4958597;29;20981;-78
2024/02/09 00:13:34;;;;;;;0.53;0.53;;;9.50;99.90;;;;;;4958709;29;20484;-78
2024/02/09 00:16:02;;;;;;;4.07;0.63;;;9.50;99.90;;;;;;4958880;29;20450;-78
2024/02/09 00:18:31;;;;;;;0.50;0.50;;;9.50;99.90;;;;;;4957889;28;20482;-78
2024/02/09 00:20:58;;;;;;;0.53;0.53;;;9.50;99.90;;;;;;4958202;29;20533;-78
2024/02/09 00:23:25;;;;;;;2.10;0.60;;;9.50;99.90;;;;;;4957862;29;21007;-78
2024/02/09 00:25:51;;;;;;;0.60;0.50;;;9.50;99.90;;;;;;4957997;29;20443;-78
2024/02/09 00:28:18;;;;;;;1.80;0.57;;;9.50;99.90;;;;;;4957998;29;20457;-78
2024/02/09 00:30:45;;;;;;;1.57;0.80;;;9.60;99.90;;;;;;4957483;28;20486;-78
2024/02/09 00:33:12;;;;;;;0.63;0.63;;;9.60;99.90;;;;;;4957925;29;20461;-78
2024/02/09 00:35:40;;;;;;;0.60;0.50;;;9.60;99.90;;;;;;4958185;28;20442;-78
2024/02/09 00:38:07;;;;;;;0.80;0.60;;;9.60;99.90;;;;;;4958177;28;20554;-78
2024/02/09 00:40:34;;;;;;;0.40;0.40;;;9.60;99.90;;;;;;4957133;28;20478;-78
2024/02/09 00:43:02;;;;;;;2.60;0.70;;;9.60;99.90;;;;;;4958286;29;20451;-78
2024/02/09 00:45:30;;;;;;;7.63;0.93;;;9.60;99.90;;;;;;4957865;29;20510;-78
2024/02/09 00:47:57;;;;;;;0.93;0.57;;;9.60;99.90;;;;;;4958179;29;20450;-78
2024/02/09 00:50:24;;;;;;;7.33;0.70;;;9.60;99.90;;;;;;4957959;28;21011;-78
2024/02/09 00:52:53;;;;;;;0.70;0.60;;;9.60;99.90;;;;;;4958003;29;20442;-78
2024/02/09 00:55:20;;;;;;;0.40;0.40;;;9.60;99.90;;;;;;4958302;28;20453;-78
2024/02/09 00:57:47;;;;;;;5.30;0.63;;;9.60;99.90;;;;;;4958433;29;20453;-78
2024/02/09 01:00:16;;;;;;;8.13;0.70;;;9.60;99.90;;;;;;4967226;28;20474;-78
2024/02/09 01:02:43;;;;;;;1.80;0.50;;;9.60;99.90;;;;;;4968174;29;20454;-78
2024/02/09 01:05:13;;;;;;;4.10;0.50;;;9.60;99.90;;;;;;4958695;29;20485;-78
2024/02/09 01:07:41;;;;;;;5.23;0.80;;;9.60;99.90;;;;;;4959071;29;20433;-78
2024/02/09 01:10:11;;;;;;;0.40;0.40;;;9.60;99.90;;;;;;4961004;28;20482;-78
2024/02/09 02:46:35;;;;;;;2.77;1.80;;;8.80;99.90;;;;;;4977563;28;20198;-80
2024/02/09 03:05:29;;;;;;;0.53;0.40;;;8.80;99.90;;;;;;4981372;28;20914;-79
2024/02/09 03:07:57;;;;;;;2.20;0.43;;;8.80;99.90;;;;;;4980739;28;20818;-79
2024/02/09 03:10:24;;;;;;;0.60;0.60;;;8.90;99.90;;;;;;4980509;28;20489;-79
2024/02/09 03:12:51;;;;;;;0.30;0.30;;;8.80;99.90;;;;;;4989027;28;20491;-79
2024/02/09 03:15:18;;;;;;;0.40;0.30;;;8.90;99.90;;;;;;4979935;28;20433;-79
2024/02/09 03:17:46;;;;;;;0.60;0.53;;;8.90;99.90;;;;;;4979170;28;20479;-79
2024/02/09 03:20:13;;;;;;;2.63;0.87;;;8.80;99.90;;;;;;4979207;28;20465;-79
2024/02/09 03:22:41;;;;;;;7.70;0.77;;;8.80;99.90;;;;;;4979428;28;20446;-79
2024/02/09 03:25:09;;;;;;;1.70;0.53;;;8.80;99.90;;;;;;4978404;28;20449;-79
2024/02/09 03:27:37;;;;;;;0.50;0.50;;;8.80;99.90;;;;;;4978560;28;20476;-79
2024/02/09 03:30:06;;;;;;;8.40;0.97;;;8.90;99.90;;;;;;4978168;28;21013;-79
2024/02/09 03:32:33;;;;;;;0.30;0.30;;;8.80;99.90;;;;;;4978285;28;20477;-79
2024/02/09 03:35:01;;;;;;;0.60;0.30;;;8.80;99.90;;;;;;4978584;28;20451;-79
2024/02/09 03:37:32;;;;;;;0.40;0.33;;;8.80;99.90;;;;;;4978145;28;20473;-80
2024/02/09 03:40:01;;;;;;;0.50;0.50;;;8.80;99.90;;;;;;4978419;28;20480;-80
2024/02/09 03:42:28;;;;;;;1.07;0.50;;;8.90;99.90;;;;;;4978515;28;20445;-80
2024/02/09 03:44:55;;;;;;;1.03;0.50;;;8.80;99.90;;;;;;4978445;28;20460;-79
2024/02/09 03:47:24;;;;;;;1.33;0.90;;;8.80;99.90;;;;;;4978164;28;20456;-79
2024/02/09 03:49:51;;;;;;;0.40;0.40;;;8.90;99.90;;;;;;4977741;28;20891;-79
2024/02/09 03:52:20;;;;;;;0.70;0.40;;;8.80;99.90;;;;;;4978023;28;20477;-79
2024/02/09 03:54:47;;;;;;;1.50;0.50;;;8.80;99.90;;;;;;4978241;28;20446;-79
2024/02/09 03:57:15;;;;;;;1.70;1.43;;;8.80;99.90;;;;;;4977562;28;20950;-79
2024/02/09 03:59:42;;;;;;;0.60;0.37;;;8.80;99.90;;;;;;4977724;28;20480;-78
2024/02/09 04:02:09;;;;;;;2.10;0.87;;;8.80;99.90;;;;;;4977844;28;20442;-79
2024/02/09 04:04:36;;;;;;;0.50;0.40;;;8.70;99.90;;;;;;4977685;28;20449;-78
2024/02/09 04:07:05;;;;;;;0.50;0.50;;;8.70;99.90;;;;;;4977397;28;20787;-78
2024/02/09 04:09:32;;;;;;;1.77;0.70;;;8.70;99.90;;;;;;4977119;28;20979;-78
2024/02/09 04:11:59;;;;;;;1.23;0.60;;;8.70;99.90;;;;;;4977656;28;20467;-78
2024/02/09 04:14:28;;;;;;;0.60;0.60;;;8.70;99.90;;;;;;4977517;28;20449;-78
2024/02/09 04:16:55;;;;;;;0.60;0.50;;;8.70;99.90;;;;;;4977585;28;20449;-78
2024/02/09 04:19:23;;;;;;;0.40;0.40;;;8.60;99.90;;;;;;4977913;28;20556;-78
2024/02/09 04:21:50;;;;;;;0.40;0.30;;;8.70;99.90;;;;;;4978655;28;20434;-78
2024/02/09 04:24:18;;;;;;;0.50;0.40;;;8.60;99.90;;;;;;4978675;28;20457;-78
2024/02/09 04:26:45;;;;;;;0.40;0.40;;;8.60;99.90;;;;;;4978451;28;20473;-78
2024/02/09 04:29:15;;;;;;;0.77;0.60;;;8.70;99.90;;;;;;4979022;28;20888;-78
2024/02/09 04:31:43;;;;;;;1.17;0.50;;;8.70;99.90;;;;;;4978786;28;20944;-78
2024/02/09 04:34:11;;;;;;;0.70;0.50;;;8.60;99.90;;;;;;4978483;28;20982;-79
2024/02/09 04:36:38;;;;;;;2.97;0.73;;;8.60;99.90;;;;;;4978589;28;20535;-80
2024/02/09 04:39:08;;;;;;;0.63;0.53;;;8.60;99.90;;;;;;4978734;28;20476;-79
2024/02/09 04:41:36;;;;;;;0.40;0.37;;;8.60;99.90;;;;;;4978563;28;20452;-79
2024/02/09 04:44:03;;;;;;;0.40;0.40;;;8.60;99.90;;;;;;4979113;28;20878;-79
2024/02/09 04:46:29;;;;;;;0.87;0.40;;;8.60;99.90;;;;;;4979113;28;20437;-78
2024/02/09 04:48:57;;;;;;;0.50;0.50;;;8.60;99.90;;;;;;4978584;28;20473;-79
2024/02/09 04:51:24;;;;;;;0.40;0.30;;;8.60;99.90;;;;;;4978351;28;20839;-79
2024/02/09 04:53:51;;;;;;;0.50;0.50;;;8.60;99.90;;;;;;4977934;28;20453;-79
2024/02/09 04:56:23;;;;;;;1.30;1.10;;;8.60;99.90;;;;;;4977646;28;20437;-79
2024/02/09 04:58:52;;;;;;;0.50;0.37;;;8.60;99.90;;;;;;4978317;28;20978;-78
2024/02/09 05:01:27;;;;;;;0.40;0.40;;;8.60;99.90;;;;;;4977989;28;20450;-78
2024/02/09 05:03:54;;;;;;;0.50;0.37;;;8.60;99.90;;;;;;4977666;28;20504;-78
2024/02/09 05:06:22;;;;;;;0.40;0.37;;;8.60;99.90;;;;;;4977361;28;20445;-78
2024/02/09 05:08:49;;;;;;;1.73;0.50;;;8.60;99.90;;;;;;4977614;28;20489;-79
2024/02/09 05:11:16;;;;;;;0.40;0.40;;;8.50;99.90;;;;;;4977014;28;20852;-79
2024/02/09 05:13:43;;;;;;;0.77;0.57;;;8.60;99.90;;;;;;4977147;28;20461;-78
2024/02/09 05:16:10;;;;;;;0.53;0.53;;;8.60;99.90;;;;;;4977273;28;20453;-78
2024/02/09 05:18:36;;;;;;;0.60;0.50;;;8.50;99.90;;;;;;4978184;28;20444;-79
2024/02/09 05:21:04;;;;;;;0.40;0.40;;;8.60;99.90;;;;;;4977082;28;20458;-78
2024/02/09 05:23:32;;;;;;;0.93;0.93;;;8.60;99.90;;;;;;4987173;28;20444;-77
2024/02/09 05:25:59;;;;;;;1.43;0.40;;;8.60;99.90;;;;;;4975797;28;20459;-78
2024/02/09 05:28:25;;;;;;;0.90;0.40;;;8.60;99.90;;;;;;4976286;28;20453;-78
2024/02/09 05:30:52;;;;;;;0.50;0.50;;;8.60;99.90;;;;;;4976179;28;20827;-79
2024/02/09 05:33:19;;;;;;;0.30;0.30;;;8.60;99.90;;;;;;4976099;28;20489;-78
2024/02/09 05:35:46;;;;;;;0.57;0.40;;;8.60;99.90;;;;;;4976101;28;20857;-78
2024/02/09 05:38:13;;;;;;;0.40;0.40;;;8.60;99.90;;;;;;4976362;28;20504;-78
2024/02/09 05:40:41;;;;;;;0.40;0.30;;;8.60;99.90;;;;;;4976099;28;20465;-79
2024/02/09 05:43:10;;;;;;;0.40;0.40;;;8.60;99.90;;;;;;4976115;28;20573;-78
2024/02/09 05:45:36;;;;;;;0.37;0.33;;;8.60;99.90;;;;;;4975749;28;20462;-78
2024/02/09 05:48:05;;;;;;;1.53;1.43;;;8.60;99.90;;;;;;4975826;28;20449;-78
2024/02/09 05:50:32;;;;;;;0.40;0.40;;;8.50;99.90;;;;;;4976025;28;20505;-78
2024/02/09 05:52:59;;;;;;;0.30;0.30;;;8.60;99.90;;;;;;4975131;28;20485;-79
2024/02/09 05:55:26;;;;;;;0.87;0.60;;;8.50;99.90;;;;;;4975754;28;20445;-78
2024/02/09 05:57:54;;;;;;;0.90;0.40;;;8.50;99.90;;;;;;4975272;28;20445;-78
2024/02/09 06:00:21;;;;;;;0.70;0.50;;;8.50;99.90;;;;;;4975884;28;20469;-78
2024/02/09 06:02:50;;;;;;;0.40;0.30;;;8.50;99.90;;;;;;4975721;28;20816;-78
2024/02/09 06:05:17;;;;;;;0.40;0.40;;;8.50;99.90;;;;;;4975264;28;20998;-78
2024/02/09 06:07:44;;;;;;;0.70;0.60;;;8.50;99.90;;;;;;4975554;28;20449;-78
2024/02/09 06:10:11;;;;;;;1.60;0.50;;;8.60;99.90;;;;;;4975140;28;21021;-78
2024/02/09 06:12:37;;;;;;;0.40;0.40;;;8.50;99.90;;;;;;4975158;28;20488;-78
2024/02/09 06:15:08;;;;;;;0.77;0.40;;;8.50;99.90;;;;;;4975349;28;20449;-78
2024/02/09 06:17:34;;;;;;;0.47;0.40;;;8.50;99.90;;;;;;4975106;28;20457;-78
2024/02/09 06:20:01;;;;;;;0.30;0.30;;;8.50;99.90;;;;;;4975395;28;20468;-78
2024/02/09 06:22:28;;;;;;;0.30;0.30;;;8.50;99.90;;;;;;4975309;28;20444;-78
2024/02/09 06:24:57;;;;;;;0.40;0.40;;;8.50;99.90;;;;;;4975226;28;20453;-78
2024/02/09 06:27:24;;;;;;;0.37;0.37;;;8.50;99.90;;;;;;4975340;28;20453;-78
2024/02/09 06:29:52;;;;;;;0.40;0.40;;;8.50;99.90;;;;;;4975118;28;20477;-78
2024/02/09 06:32:21;;;;;;;0.40;0.30;;;8.50;99.90;;;;;;4975149;28;20532;-78
2024/02/09 06:34:48;;;;;;;0.30;0.30;;;8.50;99.90;;;;;;4975875;28;20452;-78
2024/02/09 06:37:18;;;;;;;0.40;0.40;;;8.50;99.90;;;;;;4974323;28;20449;-78
2024/02/09 06:39:46;;;;;;;0.60;0.60;;;8.60;99.90;;;;;;4975176;28;20553;-78
2024/02/09 06:42:13;;;;;;;0.40;0.40;;;8.60;99.90;;;;;;4975815;28;20441;-78
2024/02/09 06:44:42;;;;;;;0.70;0.70;;;8.60;99.90;;;;;;4975583;28;20445;-78
2024/02/09 06:47:10;;;;;;;0.33;0.33;;;8.60;99.90;;;;;;4975366;28;20883;-78
2024/02/09 06:49:38;;;;;;;0.30;0.30;;;8.50;99.90;;;;;;4975320;28;20469;-78
2024/02/09 06:52:05;;;;;;;0.30;0.20;;;8.50;99.90;;;;;;4975245;28;20527;-78
2024/02/09 06:54:32;;;;;;;0.57;0.40;;;8.60;99.90;;;;;;4975547;28;20970;-79
2024/02/09 06:56:59;;;;;;;0.50;0.40;;;8.60;99.90;;;;;;4976291;28;20456;-79
2024/02/09 06:59:27;;;;;;;0.30;0.30;;;8.60;99.90;;;;;;4975531;28;20477;-78
2024/02/09 07:01:54;;;;;;;0.40;0.30;;;8.60;99.90;;;;;;4975820;28;20966;-79
2024/02/09 07:04:20;;;;;;;0.77;0.40;;;8.60;99.90;;;;;;4975548;28;20938;-78
2024/02/09 07:06:48;;;;;;;1.03;0.40;;;8.60;99.90;;;;;;4975035;28;20449;-78
2024/02/09 07:09:18;;;;;;;0.30;0.30;;;8.60;99.90;;;;;;4975660;28;20982;-78
2024/02/09 07:11:45;;;;;;;0.50;0.50;;;8.50;99.90;;;;;;4975044;28;20539;-78
2024/02/09 07:14:12;;;;;;;0.37;0.37;;;8.50;99.90;;;;;;4975743;28;21005;-78
2024/02/09 07:16:40;;;;;;;0.50;0.50;;;8.50;99.90;;;;;;4976034;28;20453;-79
2024/02/09 07:19:09;;;;;;;0.40;0.40;;;8.60;99.90;;;;;;4976205;28;20474;-78
2024/02/09 07:21:36;;;;;;;0.37;0.33;;;8.50;99.90;;;;;;4977455;28;20449;-78
2024/02/09 07:24:04;;;;;;;0.30;0.30;;;8.60;99.90;;;;;;4976657;28;20449;-79
2024/02/09 07:26:31;;;;;;;0.30;0.30;;;8.60;99.90;;;;;;4976145;28;20939;-78
2024/02/09 07:28:58;;;;;;;0.43;0.30;;;8.60;99.90;;;;;;4975891;28;20476;-78
2024/02/09 07:31:25;;;;;;;0.43;0.30;;;8.60;99.90;;;;;;4976843;28;20837;-78
2024/02/09 07:33:52;;;;;;;0.80;0.60;;;8.60;99.90;;;;;;4978196;28;20485;-78
2024/02/09 07:36:18;;;;;;;0.40;0.30;;;8.60;99.90;;;;;;4984735;28;20457;-77
2024/02/09 07:38:44;;;;;;;2.80;0.37;;;8.70;99.90;;;;;;4976499;28;20943;-78
2024/02/09 07:41:13;;;;;;;0.70;0.50;;;8.70;99.90;;;;;;4975949;28;20210;-78
2024/02/09 07:43:40;;;;;;;0.40;0.30;;;8.70;99.90;;;;;;4975032;28;20445;-78
2024/02/09 07:46:07;;;;;;;0.40;0.40;;;8.70;99.90;;;;;;4975133;28;20818;-78
2024/02/09 07:48:33;;;;;;;0.93;0.93;;;8.70;99.90;;;;;;4976434;28;20824;-78
2024/02/09 07:51:02;;;;;;;1.20;0.53;;;8.70;99.90;;;;;;4978498;28;20445;-78
2024/02/09 07:53:30;;;;;;;0.37;0.33;;;8.70;99.90;;;;;;4978152;28;20489;-78
2024/02/09 07:55:57;;;;;;;1.33;0.40;;;8.80;99.90;;;;;;4979086;28;20453;-78
2024/02/09 07:58:25;;;;;;;0.30;0.30;;;8.80;99.90;;;;;;4978092;28;21046;-78
2024/02/09 08:00:53;;;;;;;0.40;0.40;;;8.90;99.90;;;;;;4978273;28;20477;-78
2024/02/09 08:03:20;;;;;;;0.47;0.40;;;8.90;99.90;;;;;;4977981;28;20452;-78
2024/02/09 08:05:47;;;;;;;0.67;0.30;;;9.20;99.90;;;;;;4977857;28;20450;-78
2024/02/09 08:08:14;;;;;;;0.63;0.63;;;9.30;99.90;;;;;;4977483;28;20468;-78
2024/02/09 08:10:41;;;;;;;2.10;0.40;;;9.40;99.90;;;;;;4977368;28;20500;-78
2024/02/09 08:13:08;;;;;;;0.40;0.33;;;9.40;99.90;;;;;;4977524;28;20485;-78
2024/02/09 08:15:36;;;;;;;1.03;0.40;;;9.40;99.90;;;;;;4977960;28;20454;-78
2024/02/09 08:18:03;;;;;;;0.30;0.30;;;9.40;99.90;;;;;;4977927;28;20445;-78
2024/02/09 08:20:34;;;;;;;1.13;0.30;;;9.30;99.90;;;;;;4977555;28;20470;-77
2024/02/09 08:23:01;;;;;;;0.37;0.30;;;9.40;99.90;;;;;;4977540;28;20422;-77
2024/02/09 08:25:28;;;;;;;0.40;0.30;;;9.50;99.90;;;;;;4977551;28;20497;-77
2024/02/09 08:27:54;;;;;;;0.40;0.40;;;9.50;99.90;;;;;;4977685;28;20430;-77
2024/02/09 08:30:21;;;;;;;0.40;0.40;;;9.60;99.90;;;;;;4977734;28;20526;-78
2024/02/09 08:32:49;;;;;;;0.40;0.30;;;9.70;99.90;;;;;;4977744;28;20496;-78
2024/02/09 08:35:16;;;;;;;0.60;0.50;;;9.80;99.90;;;;;;4977737;28;20448;-78
2024/02/09 08:37:43;;;;;;;0.40;0.30;;;9.90;99.90;;;;;;4977344;28;20434;-78
2024/02/09 08:40:10;;;;;;;0.40;0.30;;;9.90;99.90;;;;;;4977505;28;20804;-78
2024/02/09 08:42:37;;;;;;;0.40;0.40;;;10.00;99.90;;;;;;4977517;28;20453;-77
2024/02/09 08:45:04;;;;;;;2.40;0.80;;;10.10;99.90;;;;;;4977500;28;20434;-78
2024/02/09 08:47:34;;;;;;;0.40;0.40;;;10.30;99.90;;;;;;4977686;28;20454;-78
2024/02/09 08:50:02;;;;;;;0.37;0.33;;;10.40;99.90;;;;;;4977619;28;20476;-78
2024/02/09 08:52:30;;;;;;;0.93;0.60;;;10.50;99.90;;;;;;4977085;28;20457;-78
2024/02/09 08:54:57;;;;;;;0.33;0.30;;;10.70;99.90;;;;;;4977792;28;20457;-78
2024/02/09 08:57:23;;;;;;;0.60;0.53;;;10.80;99.90;;;;;;4977670;28;20517;-78
2024/02/09 08:59:50;;;;;;;0.40;0.40;;;11.10;99.90;;;;;;4976672;28;20472;-78
2024/02/09 09:02:17;;;;;;;1.73;0.40;;;11.20;99.90;;;;;;4977515;28;20447;-78
2024/02/09 09:04:43;;;;;;;0.90;0.70;;;11.30;99.90;;;;;;4977529;28;20453;-78
2024/02/09 09:07:12;;;;;;;0.53;0.40;;;11.40;99.90;;;;;;4977771;28;20838;-78
2024/02/09 09:09:40;;;;;;;0.40;0.40;;;11.70;99.90;;;;;;4977337;28;20505;-78
2024/02/09 09:12:07;;;;;;;0.70;0.37;;;12.00;99.90;;;;;;4977130;28;20433;-78
2024/02/09 09:14:36;;;;;;;1.67;0.60;;;12.10;99.90;;;;;;4977233;28;20833;-78
2024/02/09 09:17:03;;;;;;;0.50;0.50;;;12.10;99.90;;;;;;4977218;28;20879;-79
2024/02/09 09:19:29;;;;;;;4.20;0.40;;;12.10;99.90;;;;;;4977161;28;20473;-78
2024/02/09 09:21:56;;;;;;;3.90;0.70;;;12.10;99.90;;;;;;4977275;28;20969;-78
2024/02/09 09:24:25;;;;;;;0.40;0.40;;;12.20;99.90;;;;;;4977521;28;20442;-78
2024/02/09 09:26:51;;;;;;;1.90;0.40;;;12.40;99.90;;;;;;4977343;28;20805;-78
2024/02/09 09:29:18;;;;;;;0.60;0.50;;;12.40;99.90;;;;;;4977253;28;20470;-78
2024/02/09 09:31:47;;;;;;;0.40;0.40;;;12.50;99.90;;;;;;4977238;28;20811;-77
2024/02/09 09:34:13;;;;;;;2.00;0.60;;;12.60;99.90;;;;;;4977193;28;20539;-77
2024/02/09 09:36:40;;;;;;;0.40;0.30;;;12.60;99.90;;;;;;4977228;28;20452;-78
2024/02/09 09:39:07;;;;;;;1.97;0.50;;;12.50;99.90;;;;;;4976714;28;20457;-78
2024/02/09 09:41:37;;;;;;;5.30;0.50;;;12.50;99.90;;;;;;4976813;28;20454;-78
2024/02/09 09:44:03;;;;;;;1.17;0.57;;;12.50;99.90;;;;;;4978814;28;20426;-82
2024/02/09 09:46:31;;;;;;;0.57;0.50;;;;;;;;;;4982360;28;20455;-78
2024/02/09 09:48:58;;;;;;;0.40;0.30;;;12.40;99.90;;;;;;4976072;28;20505;-78
2024/02/09 09:51:30;;;;;;;2.30;0.60;;;12.40;99.90;;;;;;4976131;28;20452;-78
2024/02/09 09:54:00;;;;;;;0.40;0.33;;;12.60;99.90;;;;;;4975846;28;20499;-77
2024/02/09 09:56:27;;;;;;;0.97;0.93;;;12.80;99.90;;;;;;4976131;28;20438;-77
2024/02/09 09:58:56;;;;;;;0.60;0.60;;;13.00;99.90;;;;;;4976596;28;20469;-78
2024/02/09 10:01:23;;;;;;;3.13;0.70;;;13.10;99.90;;;;;;4976334;28;20445;-78
2024/02/09 10:03:50;;;;;;;0.30;0.30;;;13.10;99.90;;;;;;4976416;28;20450;-78
2024/02/09 10:06:17;;;;;;;0.40;0.40;;;13.10;99.90;;;;;;4976370;28;20813;-78
2024/02/09 10:08:44;;;;;;;1.13;0.43;;;13.10;99.90;;;;;;4976930;28;20445;-78
2024/02/09 10:11:11;;;;;;;0.70;0.70;;;12.90;99.90;;;;;;4976112;28;21002;-78
2024/02/09 10:13:42;;;;;;;0.60;0.57;;;12.80;99.90;;;;;;4976379;28;20489;-78
2024/02/09 10:16:10;;;;;;;0.40;0.40;;;12.80;99.90;;;;;;4976887;28;20482;-78
2024/02/09 10:18:38;;;;;;;0.40;0.40;;;12.70;99.90;;;;;;4976686;28;20442;-78
2024/02/09 10:21:08;;;;;;;0.70;0.47;;;12.60;99.90;;;;;;4976192;28;20448;-78
2024/02/09 10:23:35;;;;;;;1.57;0.60;;;12.70;99.90;;;;;;4975843;28;20445;-78
2024/02/09 10:26:05;;;;;;;0.60;0.30;;;12.60;99.90;;;;;;4975753;28;20442;-78
2024/02/09 10:28:33;;;;;;;0.40;0.40;;;12.60;99.90;;;;;;4975962;28;20503;-78
2024/02/09 10:31:00;;;;;;;0.40;0.40;;;12.70;99.90;;;;;;4975648;28;20456;-78
2024/02/09 10:33:28;;;;;;;0.70;0.50;;;12.80;99.90;;;;;;4975961;28;20477;-77
2024/02/09 10:35:56;;;;;;;1.30;0.50;;;12.80;99.90;;;;;;4975815;28;20965;-78
2024/02/09 10:38:23;;;;;;;1.10;0.53;;;12.80;99.90;;;;;;4976249;28;20503;-78
2024/02/09 10:40:54;;;;;;;0.47;0.47;;;12.90;99.90;;;;;;4976266;28;20484;-78
2024/02/09 10:43:23;;;;;;;2.33;0.50;;;12.80;99.90;;;;;;4976874;28;20523;-79
2024/02/09 10:45:51;;;;;;;2.33;0.30;;;13.00;99.90;;;;;;4977875;28;21001;-78
2024/02/09 10:48:21;;;;;;;3.90;0.50;;;13.10;99.90;;;;;;4977118;28;20954;-78
2024/02/09 10:50:53;;;;;;;0.40;0.33;;;13.20;99.90;;;;;;4976501;28;20880;-78
2024/02/09 10:53:24;;;;;;;0.80;0.50;;;13.30;99.90;;;;;;4976122;28;20480;-78
2024/02/09 10:56:00;;;;;;;0.50;0.40;;;13.40;99.90;;;;;;4975845;28;20430;-78
2024/02/09 10:58:28;;;;;;;0.40;0.40;;;13.30;99.90;;;;;;4975852;28;20918;-78
2024/02/09 11:00:55;;;;;;;0.60;0.60;;;13.30;99.90;;;;;;4975766;28;20429;-78
2024/02/09 11:03:21;;;;;;;1.90;0.60;;;13.20;99.90;;;;;;4976059;28;20453;-78
2024/02/09 11:05:50;;;;;;;0.90;0.53;;;13.20;99.90;;;;;;4975517;28;20438;-78
2024/02/09 11:08:17;;;;;;;0.90;0.50;;;13.10;99.90;;;;;;4975243;28;20453;-78
2024/02/09 11:10:44;;;;;;;0.70;0.53;;;13.10;99.90;;;;;;4975308;28;20858;-78
2024/02/09 11:13:10;;;;;;;1.40;0.67;;;13.10;99.90;;;;;;4975339;28;20453;-78
2024/02/09 11:15:38;;;;;;;0.40;0.40;;;13.10;99.90;;;;;;4975076;28;20438;-78
2024/02/09 11:18:08;;;;;;;1.23;0.30;;;13.10;99.90;;;;;;4975532;28;20806;-77
2024/02/09 11:20:38;;;;;;;0.93;0.50;;;13.00;99.90;;;;;;4975872;28;20496;-78
2024/02/09 11:23:06;;;;;;;0.40;0.30;;;13.00;99.90;;;;;;4975899;28;20489;-78
2024/02/09 11:25:34;;;;;;;1.47;0.50;;;13.00;99.90;;;;;;4978881;28;20441;-78
2024/02/09 11:28:06;;;;;;;1.50;0.40;;;13.10;99.90;;;;;;4979048;28;20457;-78
2024/02/09 11:30:33;;;;;;;0.73;0.40;;;13.10;99.90;;;;;;4979096;28;20473;-78
2024/02/09 11:33:00;;;;;;;1.10;0.60;;;13.00;99.90;;;;;;4979081;28;20445;-78
2024/02/09 11:35:27;;;;;;;0.70;0.37;;;13.00;99.90;;;;;;4979023;28;20855;-78
2024/02/09 11:37:54;;;;;;;0.83;0.43;;;13.00;99.90;;;;;;4979377;28;20544;-78
2024/02/09 11:40:22;;;;;;;0.40;0.30;;;13.00;99.90;;;;;;4979208;28;20473;-78
2024/02/09 11:42:49;;;;;;;4.87;0.60;;;12.90;99.90;;;;;;4978698;28;20433;-78
2024/02/09 11:45:16;;;;;;;1.87;0.60;;;12.90;99.90;;;;;;4978672;28;20939;-78
2024/02/09 11:47:44;;;;;;;0.40;0.30;;;12.70;99.90;;;;;;4978549;28;20448;-78
2024/02/09 11:50:20;;;;;;;0.57;0.37;;;12.50;99.90;;;;;;4978670;28;20479;-78
2024/02/09 11:52:47;;;;;;;0.40;0.30;;;12.50;99.90;;;;;;4979261;28;20445;-78
2024/02/09 11:55:14;;;;;;;1.37;0.50;;;12.40;99.90;;;;;;4979100;28;20473;-78
2024/02/09 11:57:42;;;;;;;0.50;0.40;;;12.40;99.90;;;;;;4988872;28;20441;-77
2024/02/09 12:00:12;;;;;;;0.30;0.30;;;12.30;99.90;;;;;;4979764;28;20473;-77
2024/02/09 12:02:39;;;;;;;0.50;0.40;;;12.30;99.90;;;;;;4979322;28;20488;-78
2024/02/09 12:05:08;;;;;;;0.40;0.30;;;12.30;99.90;;;;;;4978354;28;20473;-78
2024/02/09 12:07:35;;;;;;;0.33;0.30;;;12.40;99.90;;;;;;4977976;28;20456;-78
2024/02/09 12:10:04;;;;;;;0.77;0.60;;;12.40;99.90;;;;;;4977871;28;20487;-77
2024/02/09 12:12:30;;;;;;;0.40;0.40;;;12.30;99.90;;;;;;4978617;28;20457;-78
2024/02/09 12:14:58;;;;;;;1.10;0.50;;;12.30;99.90;;;;;;4978261;28;20485;-78
2024/02/09 12:17:25;;;;;;;0.43;0.43;;;12.20;99.90;;;;;;4978240;28;20449;-78
2024/02/09 12:19:52;;;;;;;1.00;0.40;;;12.10;99.90;;;;;;4977868;28;20468;-78
2024/02/09 12:22:19;;;;;;;0.40;0.40;;;12.00;99.90;;;;;;4979168;28;20445;-78
2024/02/09 12:24:47;;;;;;;2.80;0.60;;;11.90;99.90;;;;;;4985501;28;20449;-78
2024/02/09 12:27:15;;;;;;;0.40;0.40;;;11.80;99.90;;;;;;4980282;28;20461;-78
2024/02/09 12:29:42;;;;;;;0.83;0.53;;;11.60;99.90;;;;;;4978552;28;20458;-78
2024/02/09 12:32:11;;;;;;;0.50;0.50;;;11.50;99.90;;;;;;4978616;28;20791;-78
2024/02/09 12:34:44;;;;;;;0.40;0.40;;;11.40;99.90;;;;;;4977578;28;20481;-78
2024/02/09 12:37:11;;;;;;;0.57;0.53;;;11.30;99.90;;;;;;4978685;28;20457;-78
2024/02/09 12:39:38;;;;;;;3.50;0.60;;;11.30;99.90;;;;;;4978018;28;20473;-78
2024/02/09 12:42:05;;;;;;;0.43;0.40;;;11.30;99.90;;;;;;4977832;28;20453;-78
2024/02/09 12:44:32;;;;;;;3.90;0.50;;;11.30;99.90;;;;;;4977805;28;20492;-77
2024/02/09 12:47:02;;;;;;;1.03;0.40;;;11.30;99.90;;;;;;4978180;28;20955;-78
2024/02/09 12:49:36;;;;;;;0.43;0.43;;;11.30;99.90;;;;;;4978984;28;20478;-79
2024/02/09 12:52:04;;;;;;;0.60;0.40;;;11.30;99.90;;;;;;4979198;28;20434;-79
2024/02/09 12:54:30;;;;;;;1.00;0.50;;;11.30;99.90;;;;;;4978427;28;21020;-79
2024/02/09 12:56:59;;;;;;;0.40;0.40;;;11.30;99.90;;;;;;4978539;28;20453;-79
2024/02/09 12:59:26;;;;;;;0.50;0.40;;;11.40;99.90;;;;;;4978008;28;20890;-79
2024/02/09 13:01:53;;;;;;;0.60;0.40;;;11.40;99.90;;;;;;4979199;28;20458;-79
2024/02/09 13:04:20;;;;;;;0.80;0.50;;;11.40;99.90;;;;;;4979272;28;20437;-78
2024/02/09 13:06:49;;;;;;;0.80;0.47;;;11.50;99.90;;;;;;4979341;28;20441;-78
2024/02/09 13:09:16;;;;;;;1.83;1.00;;;11.50;99.90;;;;;;4978723;28;20588;-78
2024/02/09 13:11:42;;;;;;;1.73;0.80;;;11.50;99.90;;;;;;4979108;28;20994;-78
2024/02/09 13:14:09;;;;;;;0.60;0.50;;;11.60;99.90;;;;;;4979081;28;20476;-79
2024/02/09 13:16:37;;;;;;;0.60;0.40;;;11.60;99.90;;;;;;4977966;28;20896;-79
2024/02/09 13:19:05;;;;;;;0.50;0.50;;;11.60;99.90;;;;;;4977773;28;20476;-78
2024/02/09 13:21:32;;;;;;;0.40;0.40;;;11.60;99.90;;;;;;4977330;28;20886;-78
2024/02/09 13:24:00;;;;;;;0.90;0.50;;;11.70;99.90;;;;;;4977709;28;20457;-78
2024/02/09 13:26:29;;;;;;;0.40;0.40;;;11.70;99.90;;;;;;4976890;28;20437;-78
2024/02/09 13:28:57;;;;;;;0.60;0.50;;;11.70;99.90;;;;;;4976750;28;21020;-78
2024/02/09 13:31:24;;;;;;;0.70;0.50;;;11.80;99.90;;;;;;4976836;28;20547;-78
2024/02/09 13:33:50;;;;;;;1.23;0.50;;;11.70;99.90;;;;;;4976815;28;20449;-78
2024/02/09 13:36:17;;;;;;;1.33;0.60;;;11.80;99.90;;;;;;4977248;28;20450;-78
2024/02/09 13:38:44;;;;;;;0.50;0.50;;;11.80;99.90;;;;;;4979539;28;20457;-83
2024/02/09 13:41:12;;;;;;;1.40;0.70;;;11.90;99.90;;;;;;4978435;28;20496;-78
2024/02/09 13:43:39;;;;;;;1.30;0.70;;;11.90;99.90;;;;;;4977520;28;20453;-78
2024/02/09 13:46:08;;;;;;;0.57;0.40;;;12.00;99.90;;;;;;4977395;28;20508;-78
2024/02/09 13:48:35;;;;;;;0.50;0.40;;;12.10;99.90;;;;;;4977764;28;20457;-78
2024/02/09 13:51:02;;;;;;;0.50;0.50;;;12.20;99.90;;;;;;4977286;28;20441;-78
2024/02/09 13:53:29;;;;;;;0.50;0.50;;;12.30;99.90;;;;;;4976626;28;20448;-78
2024/02/09 13:55:55;;;;;;;0.50;0.50;;;12.30;99.90;;;;;;4976908;28;20500;-78
2024/02/09 13:58:26;;;;;;;2.50;0.60;;;12.30;99.90;;;;;;4976804;28;20454;-78
2024/02/09 14:00:53;;;;;;;0.70;0.70;;;12.30;99.90;;;;;;4976900;28;20465;-78
2024/02/09 14:03:20;;;;;;;0.87;0.50;;;12.40;99.90;;;;;;4976909;28;20536;-78
2024/02/09 14:05:47;;;;;;;7.77;1.30;;;12.50;99.90;;;;;;4976692;28;20446;-78
2024/02/09 14:08:19;;;;;;;0.50;0.40;;;12.50;99.90;;;;;;4976929;28;20822;-78
2024/02/09 14:10:45;;;;;;;0.60;0.60;;;12.60;99.90;;;;;;4986000;28;20503;-77
2024/02/09 14:13:12;;;;;;;0.40;0.37;;;12.60;99.90;;;;;;4975377;28;20463;-77
2024/02/09 14:15:40;;;;;;;0.50;0.40;;;12.60;99.90;;;;;;4976010;28;20489;-78
2024/02/09 14:18:09;;;;;;;0.50;0.50;;;12.60;99.90;;;;;;4977995;28;20445;-78
2024/02/09 14:20:36;;;;;;;1.70;0.73;;;12.60;99.90;;;;;;4977336;28;20493;-78
2024/02/09 14:23:03;;;;;;;0.40;0.40;;;12.60;99.90;;;;;;4976690;28;20461;-78
2024/02/09 14:25:30;;;;;;;1.10;0.83;;;12.60;99.90;;;;;;4976292;28;20449;-78
2024/02/09 14:27:56;;;;;;;0.60;0.60;;;12.60;99.90;;;;;;4976069;28;20464;-78
2024/02/09 14:30:23;;;;;;;0.80;0.40;;;12.60;99.90;;;;;;4976835;28;20465;-78
2024/02/09 14:32:51;;;;;;;0.53;0.43;;;12.50;99.90;;;;;;4976922;28;20449;-79
2024/02/09 14:35:18;;;;;;;0.40;0.40;;;12.50;99.90;;;;;;4976916;28;20480;-78
2024/02/09 14:37:45;;;;;;;0.50;0.40;;;12.50;99.90;;;;;;4977977;28;20449;-79
2024/02/09 14:40:13;;;;;;;2.97;0.60;;;12.50;99.90;;;;;;4977306;28;20565;-78
2024/02/09 14:42:40;;;;;;;0.50;0.50;;;12.60;99.90;;;;;;4976919;28;20489;-78
2024/02/09 14:45:10;;;;;;;0.33;0.30;;;12.50;99.90;;;;;;4976683;28;20449;-78